Appleton, MN

4:39 PM CST on November 24, 2014 (GMT -0600)
Appleton Municipal | Change Station
CLOSE
Current Station
Airport
Location: Appleton,
Elevation: 1017 ft
Nearby Weather Stations
Active Advisory: Wind Advisory Active Notice: Public Information Statement

Elev 1017 ft 45.23 °N, 96.00 °W | Updated 5 minutes ago

Clear
Clear
18 °F
Feels Like 0 °F
N
22
Wind Variable Wind from NW

Today
High -- | Low -- °F
--% Chance of Precip.
Yesterday
High -- | Low -- °F
Precip. -- in
7:34 AM 4:46 PM
Waxing Crescent, 7% visible
Pressure 29.83 in
Visibility 10.0 miles
Clouds Clear
Windchill 0 °F
Dew Point 12 °F
Humidity 79%
Rainfall 0.00 in
Snow Depth Not available.
UV 0 out of 12
Pollen .10 out of 12
Air Quality Not available.
Flu Activity Not available.
METAR KAQP 242234Z AUTO 32019KT 10SM CLR M08/M11 A2983 RMK AO2

More Conditions Fewer Conditions

Pressure 29.83 in
Visibility 10.0 miles
Clouds Clear
Windchill 0 °F
Dew Point 12 °F
Humidity 79%
Rainfall 0.00 in
Snow Depth Not available.
UV 0 out of 12
Pollen .10 out of 12
Air Quality Not available.
Flu Activity Not available.
METAR KAQP 242234Z AUTO 32019KT 10SM CLR M08/M11 A2983 RMK AO2

More Conditions Fewer Conditions

Nowcast | as of 3:02 PM CST on November 24, 2014

A wide area of light snow or flurries is rotating from north to south across Minnesota and western Wisconsin. Blustery sustained northwest winds of 15 to 25 mph gusting to 35 mph...are causing temporary reduced visiblities in eastern Minnesota. Strong sustained northwest winds of 25 to 35 mph...gusting to 45 mph continue across the southwest half of Minnesota...are causing temporary reduced visiblities as low as a half mile from combined with snowfall...with blowing and drifting snow. Light accumulations of a trace to less than a half inch of snow are expected.

×

10-Day Weather Forecast

Almanac

Astronomy

Nov. 24, 2014 Rise Set
Actual Time
Civil Twilight
Nautical Twilight
Astronomical Twilight
Moon
Length of Visible Light
Length of Day
Tomorrow will be .
, % of the Moon is Illuminated

Today's Extremes

State Highs State Lows

Community

WunderPhotos

Upload Photos

1,773,427 photos uploaded!

WunderBlogs® & News

Nearby

Air Quality

  Air Quality AQ Index Pollutant
Not available.

Snow Depth

Station Depth Elevation

Earthquake Activity

City Distance Mag. Time & Date
Minimum magnitude displayed is 2.5.

Coastal Water Temperatures

Place Temperature

Nearby Weather Stations